Sunday, November 18, 2018, 3:14 PM GMT
Back to Local

CYSJ, Saint John, N. B.

Location: , , Canada Lat: 45.333
Local Time: 3:14 PM GMT (15:14 GMT) Lon: -65.883
Time Zone: GMT Elev: 337 ft

Show me the last for .
Show Coded

Time T Td Feel RH Dir Speed Gust Alt SLP Vis Weather Sky Remarks
2018-11-18 15:00 27 19 19 73 310° 7 - 30.31 30.33 15 BKN016 None
2018-11-18 14:44 25 18 16 73 320° 8 - 30.31 30.33 15 BKN015 None
2018-11-18 14:00 25 18 11 73 320° 9 17 30.30 30.33 15 SCT025 None
2018-11-18 13:00 21 16 13 79 330° 7 - 30.28 30.31 15 FEW030 None
2018-11-18 12:00 19 16 13 85 310° 5 - 30.26 30.28 15 FEW030 None
2018-11-18 11:00 21 18 11 85 330° 9 - 30.21 30.24 15 FEW030 None
2018-11-18 10:00 23 18 8 79 340° 13 20 30.18 30.20 15 FEW072 None
2018-11-18 09:00 25 18 9 73 340° 16 24 30.15 30.17 15 FEW072 None
2018-11-18 08:00 27 21 15 79 330° 15 - 30.13 30.15 15 BKN072 None
2018-11-18 07:00 30 23 18 74 310° 12 17 30.11 30.14 15 OVC072 None
2018-11-18 06:00 30 23 18 74 310° 14 20 30.08 30.10 15 OVC070 None
2018-11-18 05:00 30 25 21 80 300° 12 - 30.06 30.08 15 OVC070 None
2018-11-18 04:00 30 25 19 80 320° 16 - 30.04 30.06 15 OVC072 None
2018-11-18 03:00 28 25 23 86 270° 5 - 30.04 30.06 15 BKN078 None
2018-11-18 02:00 28 25 22 86 270° 6 - 30.03 30.06 15 SCT077 None
2018-11-18 01:00 28 25 20 86 260° 8 - 30.01 30.03 15 FEW035 None
2018-11-18 00:00 30 27 23 86 250° 8 - 29.99 30.01 15 BKN035 None
2018-11-17 23:00 30 27 22 86 270° 9 - 29.98 30.00 15 BKN033 None
2018-11-17 22:00 30 27 25 86 250° 5 - 29.95 29.97 15 BKN035 None
2018-11-17 21:00 32 28 26 86 270° 7 - 29.92 29.94 15 BKN035 BKN250 None
2018-11-17 20:00 32 28 27 86 250° 5 - 29.90 29.92 15 BKN032 OVC040 None
2018-11-17 19:00 32 27 25 80 280° 8 - 29.88 29.90 15 BKN030 BKN250 None
2018-11-17 18:00 32 25 19 74 280° 16 22 29.87 29.89 15 BKN025 None
2018-11-17 17:00 32 25 20 74 280° 14 21 29.87 29.89 15 BKN025 None
2018-11-17 16:00 30 21 17 68 290° 13 21 29.85 29.87 15 FEW025 FEW150 None

Support USWX by starting your Amazon purchase here.